createdAt,value
2023-03-13T00:02:07.987Z,97282.53
2023-03-13T00:04:34.363Z,97275.41
2023-03-13T00:07:00.746Z,97270.84
2023-03-13T00:09:27.207Z,97267.41
2023-03-13T00:11:53.795Z,97264.22
2023-03-13T00:14:20.110Z,97258.41
2023-03-13T00:16:46.586Z,97255.53
2023-03-13T00:19:12.995Z,97260.38
2023-03-13T00:21:41.079Z,97246.53
2023-03-13T00:24:07.582Z,97246.84
2023-03-13T00:26:34.161Z,97243.69
2023-03-13T00:29:00.491Z,97243.19
2023-03-13T00:31:28.183Z,97247.75
2023-03-13T00:33:55.416Z,97234.69
2023-03-13T00:36:23.134Z,97241.41
2023-03-13T00:38:49.491Z,97233.19
2023-03-13T00:41:25.511Z,97230.06
2023-03-13T00:43:52.008Z,97219.16
2023-03-13T00:46:19.006Z,97221.06
2023-03-13T00:48:45.351Z,97210.16
2023-03-13T00:51:11.730Z,97216.59
2023-03-13T00:53:38.076Z,97205.44
2023-03-13T00:56:05.793Z,97204.16
2023-03-13T00:58:33.682Z,97200.81
2023-03-13T01:01:09.811Z,97200.31
2023-03-13T01:03:36.226Z,97199.31
2023-03-13T01:06:03.715Z,97193.19
2023-03-13T01:08:30.122Z,97190.63
2023-03-13T01:11:00.153Z,97192.78
2023-03-13T01:13:26.705Z,97187.25
2023-03-13T01:15:53.083Z,97178.44
2023-03-13T01:18:19.454Z,97180.91
2023-03-13T01:20:45.794Z,97174.78
2023-03-13T01:23:12.100Z,97173.03
2023-03-13T01:25:38.420Z,97164.53
2023-03-13T01:28:04.727Z,97165.31
2023-03-13T01:30:31.033Z,97155.53
2023-03-13T01:32:57.391Z,97156.63
2023-03-13T01:35:23.842Z,97146.75
2023-03-13T01:37:50.211Z,97144.38
2023-03-13T01:40:16.561Z,97137.44
2023-03-13T01:42:52.543Z,97132.72
2023-03-13T01:45:37.736Z,97123.44
2023-03-13T01:48:04.557Z,97114.94
2023-03-13T01:50:31.028Z,97119.50
2023-03-13T01:52:57.348Z,97107.53
2023-03-13T01:55:23.667Z,97095.28
2023-03-13T01:57:50.890Z,97092.09
2023-03-13T02:00:22.242Z,97091.63
2023-03-13T02:02:49.169Z,97084.50
2023-03-13T02:05:15.856Z,97080.06
2023-03-13T02:07:49.482Z,97080.66
2023-03-13T02:10:15.872Z,97080.50
2023-03-13T02:12:42.228Z,97065.38
2023-03-13T02:15:08.713Z,97057.66
2023-03-13T02:17:35.374Z,97055.41
2023-03-13T02:20:01.689Z,97060.44
2023-03-13T02:22:29.779Z,97043.38
2023-03-13T02:24:58.290Z,97035.91
2023-03-13T02:27:24.605Z,97030.38
2023-03-13T02:29:51.017Z,97019.25
2023-03-13T02:32:17.416Z,97008.84
2023-03-13T02:34:43.778Z,97008.38
2023-03-13T02:37:10.880Z,96999.59
2023-03-13T02:39:37.298Z,96991.59
2023-03-13T02:42:03.645Z,96989.22
2023-03-13T02:44:30.045Z,96984.69
2023-03-13T02:46:56.410Z,96970.06
2023-03-13T02:49:26.502Z,96962.38
2023-03-13T02:51:53.452Z,96954.66
2023-03-13T02:54:21.326Z,96940.38
2023-03-13T02:56:49.017Z,96924.66
2023-03-13T02:59:15.395Z,96922.63
2023-03-13T03:01:41.745Z,96918.06
2023-03-13T03:04:08.161Z,96915.22
2023-03-13T03:06:34.600Z,96910.97
2023-03-13T03:09:00.946Z,96914.41
2023-03-13T03:11:27.268Z,96903.25
2023-03-13T03:13:53.573Z,96891.81
2023-03-13T03:16:20.580Z,96880.06
2023-03-13T03:18:46.943Z,96872.06
2023-03-13T03:21:13.272Z,96863.59
2023-03-13T03:23:39.601Z,96857.47
2023-03-13T03:26:05.914Z,96855.13
2023-03-13T03:28:32.480Z,96858.06
2023-03-13T03:31:03.584Z,96860.25
2023-03-13T03:33:29.909Z,96855.81
2023-03-13T03:36:02.947Z,96848.22
2023-03-13T03:38:29.367Z,96846.16
2023-03-13T03:40:55.739Z,96844.19
2023-03-13T03:43:22.502Z,96842.50
2023-03-13T03:45:48.864Z,96833.91
2023-03-13T03:48:15.259Z,96830.94
2023-03-13T03:50:41.578Z,96822.94
2023-03-13T03:53:08.088Z,96820.59
2023-03-13T03:55:35.196Z,96824.31
2023-03-13T03:58:01.576Z,96825.41
2023-03-13T04:00:27.889Z,96830.28
2023-03-13T04:02:54.807Z,96831.34
2023-03-13T04:05:21.255Z,96827.09
2023-03-13T04:07:47.592Z,96813.31
2023-03-13T04:10:13.944Z,96813.59
2023-03-13T04:12:40.343Z,96817.34
2023-03-13T04:15:06.860Z,96797.91
2023-03-13T04:17:33.488Z,96793.19
2023-03-13T04:19:59.817Z,96783.59
2023-03-13T04:22:26.144Z,96789.44
2023-03-13T04:24:52.493Z,96774.56
2023-03-13T04:27:18.826Z,96782.03
2023-03-13T04:29:45.140Z,96770.91
2023-03-13T04:32:11.458Z,96766.94
2023-03-13T04:34:38.005Z,96766.75
2023-03-13T04:37:04.352Z,96774.75
2023-03-13T04:39:32.933Z,96766.59
2023-03-13T04:41:59.424Z,96759.50
2023-03-13T04:44:25.776Z,96758.69
2023-03-13T04:46:52.111Z,96733.78
2023-03-13T04:49:18.436Z,96739.88
2023-03-13T04:51:44.750Z,96751.00
2023-03-13T04:54:11.197Z,96744.59
2023-03-13T04:56:43.499Z,96733.16
2023-03-13T04:59:13.149Z,96727.81
2023-03-13T05:01:39.916Z,96727.34
2023-03-13T05:04:06.310Z,96718.81
2023-03-13T05:06:32.639Z,96705.81
2023-03-13T05:08:58.993Z,96703.16
2023-03-13T05:11:25.351Z,96702.69
2023-03-13T05:13:51.685Z,96693.41
2023-03-13T05:16:18.080Z,96694.50
2023-03-13T05:18:44.621Z,96688.09
2023-03-13T05:21:10.930Z,96689.97
2023-03-13T05:23:37.255Z,96684.16
2023-03-13T05:26:03.590Z,96684.16
2023-03-13T05:28:29.922Z,96678.03
2023-03-13T05:30:56.294Z,96665.03
2023-03-13T05:33:22.694Z,96663.66
2023-03-13T05:35:49.061Z,96666.00
2023-03-13T05:38:15.415Z,96655.47
2023-03-13T05:40:41.731Z,96663.66
2023-03-13T05:43:08.062Z,96661.78
2023-03-13T05:45:34.367Z,96663.16
2023-03-13T05:48:00.712Z,96663.16
2023-03-13T05:50:27.037Z,96657.03
2023-03-13T05:52:53.359Z,96659.22
2023-03-13T05:55:19.684Z,96656.84
2023-03-13T05:57:46.541Z,96656.38
2023-03-13T06:00:13.522Z,96658.44
2023-03-13T06:02:39.881Z,96664.25
2023-03-13T06:05:06.375Z,96662.69
2023-03-13T06:07:32.857Z,96671.13
2023-03-13T06:09:59.217Z,96669.56
2023-03-13T06:12:25.572Z,96665.63
2023-03-13T06:14:51.894Z,96666.44
2023-03-13T06:17:18.216Z,96661.22
2023-03-13T06:19:45.838Z,96674.53
2023-03-13T06:22:12.164Z,96659.94
2023-03-13T06:24:38.558Z,96656.50
2023-03-13T06:27:04.880Z,96654.63
2023-03-13T06:29:31.214Z,96656.00
2023-03-13T06:31:57.686Z,96649.09
2023-03-13T06:34:24.115Z,96647.22
2023-03-13T06:36:50.422Z,96644.38
2023-03-13T06:39:16.739Z,96650.78
2023-03-13T06:41:43.053Z,96651.09
2023-03-13T06:44:09.371Z,96650.31
2023-03-13T06:46:35.723Z,96656.09
2023-03-13T06:49:04.578Z,96652.06
2023-03-13T06:51:30.924Z,96652.53
2023-03-13T06:53:57.257Z,96649.88
2023-03-13T06:56:23.573Z,96654.72
2023-03-13T06:58:49.942Z,96646.75
2023-03-13T07:01:16.526Z,96655.81
2023-03-13T07:03:42.993Z,96644.69
2023-03-13T07:06:09.817Z,96644.69
2023-03-13T07:08:36.294Z,96624.78
2023-03-13T07:11:03.454Z,96631.97
2023-03-13T07:13:29.973Z,96635.13
2023-03-13T07:15:56.552Z,96639.66
2023-03-13T07:18:22.964Z,96642.63
2023-03-13T07:20:55.675Z,96630.22
2023-03-13T07:23:22.464Z,96644.19
2023-03-13T07:25:55.711Z,96645.56
2023-03-13T07:28:22.233Z,96638.38
2023-03-13T07:30:48.633Z,96642.13
2023-03-13T07:33:15.232Z,96636.03
2023-03-13T07:35:41.603Z,96657.91
2023-03-13T07:38:07.935Z,96643.81
2023-03-13T07:40:34.243Z,96647.75
2023-03-13T07:43:00.585Z,96662.53
2023-03-13T07:45:26.931Z,96664.19
2023-03-13T07:47:53.313Z,96644.47
2023-03-13T07:50:19.726Z,96647.44
2023-03-13T07:52:46.108Z,96650.91
2023-03-13T07:55:12.491Z,96643.22
2023-03-13T07:57:38.808Z,96652.19
2023-03-13T08:00:08.221Z,96638.38
2023-03-13T08:02:34.591Z,96652.47
2023-03-13T08:05:00.956Z,96644.19
2023-03-13T08:07:27.331Z,96638.09
2023-03-13T08:09:53.647Z,96623.19
2023-03-13T08:12:19.967Z,96640.88
2023-03-13T08:14:46.588Z,96633.34
2023-03-13T08:17:12.956Z,96631.00
2023-03-13T08:19:39.313Z,96616.41
2023-03-13T08:22:05.620Z,96622.03
2023-03-13T08:24:31.930Z,96627.38
2023-03-13T08:26:58.246Z,96615.44
2023-03-13T08:29:24.560Z,96618.88
2023-03-13T08:31:52.573Z,96609.31
2023-03-13T08:34:18.948Z,96614.66
2023-03-13T08:36:45.430Z,96611.00
2023-03-13T08:39:15.505Z,96617.31
2023-03-13T08:41:41.914Z,96596.34
2023-03-13T08:44:08.661Z,96601.84
2023-03-13T08:46:35.683Z,96598.03
2023-03-13T08:49:02.165Z,96596.34
2023-03-13T08:51:28.715Z,96596.13
2023-03-13T08:53:55.998Z,96600.88
2023-03-13T08:56:23.091Z,96599.00
2023-03-13T08:58:52.778Z,96597.13
2023-03-13T09:01:19.122Z,96606.97
2023-03-13T09:03:45.529Z,96590.22
2023-03-13T09:06:11.962Z,96585.69
2023-03-13T09:08:38.319Z,96591.78
2023-03-13T09:11:05.536Z,96591.31
2023-03-13T09:13:32.264Z,96590.81
2023-03-13T09:15:59.590Z,96604.91
2023-03-13T09:18:26.208Z,96587.50
2023-03-13T09:20:52.632Z,96594.97
2023-03-13T09:23:19.000Z,96594.97
2023-03-13T09:25:45.419Z,96585.72
2023-03-13T09:28:12.071Z,96579.13
2023-03-13T09:30:38.672Z,96564.44
2023-03-13T09:33:05.055Z,96597.94
2023-03-13T09:35:31.403Z,96597.94
2023-03-13T09:37:57.709Z,96584.16
2023-03-13T09:40:24.182Z,96576.06
2023-03-13T09:43:00.143Z,96573.59
2023-03-13T09:45:32.546Z,96575.94
2023-03-13T09:47:59.433Z,96585.50
2023-03-13T09:50:27.279Z,96581.28
2023-03-13T09:52:54.826Z,96578.63
2023-03-13T09:55:21.895Z,96581.28
2023-03-13T09:58:00.326Z,96570.44
2023-03-13T10:00:31.151Z,96591.41
2023-03-13T10:02:59.114Z,96578.63
2023-03-13T10:05:26.515Z,96583.94
2023-03-13T10:07:56.667Z,96594.88
2023-03-13T10:10:29.208Z,96593.28
2023-03-13T10:12:57.697Z,96597.03
2023-03-13T10:15:29.772Z,96593.59
2023-03-13T10:17:56.093Z,96593.91
2023-03-13T10:20:23.770Z,96601.09
2023-03-13T10:22:52.550Z,96600.28
2023-03-13T10:25:48.347Z,96592.03
2023-03-13T10:28:15.401Z,96591.53
2023-03-13T10:30:49.068Z,96589.97
2023-03-13T10:33:19.493Z,96579.63
2023-03-13T10:35:45.961Z,96571.66
2023-03-13T10:38:13.469Z,96558.34
2023-03-13T10:40:39.860Z,96565.53
2023-03-13T10:43:07.281Z,96575.09
2023-03-13T10:45:37.114Z,96565.53
2023-03-13T10:48:05.101Z,96556.00
2023-03-13T10:50:33.274Z,96559.72
2023-03-13T10:52:59.585Z,96565.22
2023-03-13T10:55:26.163Z,96561.19
2023-03-13T10:57:55.027Z,96581.88
2023-03-13T11:00:24.451Z,96527.88
2023-03-13T11:02:50.925Z,96574.97
2023-03-13T11:05:23.007Z,96569.84
2023-03-13T11:07:49.387Z,96562.16
2023-03-13T11:10:32.458Z,96567.47
2023-03-13T11:12:58.906Z,96569.34
2023-03-13T11:15:32.767Z,96562.44
2023-03-13T11:17:59.000Z,96563.53
2023-03-13T11:20:25.777Z,96555.06
2023-03-13T11:23:10.957Z,96553.03
2023-03-13T11:25:42.964Z,96559.59
2023-03-13T11:28:24.564Z,96557.72
2023-03-13T11:30:53.825Z,96545.50
2023-03-13T11:33:33.949Z,96549.28
2023-03-13T11:36:25.633Z,96548.50
2023-03-13T11:38:53.688Z,96526.09
2023-03-13T11:41:23.250Z,96523.44
2023-03-13T11:43:58.672Z,96523.75
2023-03-13T11:46:31.073Z,96525.19
2023-03-13T11:49:02.096Z,96529.75
2023-03-13T11:51:31.512Z,96513.78
2023-03-13T11:54:16.607Z,96523.31
2023-03-13T11:57:01.474Z,96507.88
2023-03-13T11:59:27.734Z,96513.97
2023-03-13T12:01:59.325Z,96507.88
2023-03-13T12:04:27.828Z,96505.88
2023-03-13T12:06:54.056Z,96499.19
2023-03-13T12:09:40.617Z,96502.41
2023-03-13T12:12:25.332Z,96470.06
2023-03-13T12:15:16.212Z,96491.44
2023-03-13T12:17:47.039Z,96489.03
2023-03-13T12:20:14.883Z,96467.94
2023-03-13T12:22:43.163Z,96480.16
2023-03-13T12:25:18.504Z,96470.28
2023-03-13T12:27:45.812Z,96462.63
2023-03-13T12:30:19.335Z,96450.09
2023-03-13T12:33:18.111Z,96449.78
2023-03-13T12:35:45.136Z,96449.47
2023-03-13T12:38:20.803Z,96441.66
2023-03-13T12:40:56.240Z,96446.81
2023-03-13T12:43:23.745Z,96431.13
2023-03-13T12:45:59.294Z,96428.78
2023-03-13T12:48:28.428Z,96430.34
2023-03-13T12:51:01.493Z,96416.75
2023-03-13T12:53:43.486Z,96412.66
2023-03-13T12:56:22.014Z,96415.97
2023-03-13T12:58:49.490Z,96406.75
2023-03-13T13:01:17.408Z,96394.53
2023-03-13T13:03:43.684Z,96396.13
2023-03-13T13:06:11.387Z,96387.34
2023-03-13T13:08:38.848Z,96378.75
2023-03-13T13:11:24.445Z,96380.31
2023-03-13T13:13:50.793Z,96379.72
2023-03-13T13:16:18.456Z,96355.25
2023-03-13T13:18:44.797Z,96366.41
2023-03-13T13:21:24.010Z,96356.84
2023-03-13T13:23:53.879Z,96362.16
2023-03-13T13:26:37.381Z,96344.75
2023-03-13T13:29:12.606Z,96351.34
2023-03-13T13:31:46.036Z,96353.38
2023-03-13T13:34:30.971Z,96340.81
2023-03-13T13:36:57.812Z,96340.94
2023-03-13T13:39:43.472Z,96336.56
2023-03-13T13:42:28.716Z,96338.63
2023-03-13T13:44:58.498Z,96327.00
2023-03-13T13:47:25.268Z,96328.75
2023-03-13T13:49:52.891Z,96322.63
2023-03-13T13:52:20.507Z,96316.06
2023-03-13T13:54:55.153Z,96314.78
2023-03-13T13:57:22.898Z,96320.44
2023-03-13T13:59:50.049Z,96325.13
2023-03-13T14:02:17.656Z,96318.88
2023-03-13T14:04:46.848Z,96314.63
2023-03-13T14:07:29.904Z,96307.25
2023-03-13T14:10:04.630Z,96290.38
2023-03-13T14:12:33.902Z,96301.69
2023-03-13T14:15:14.002Z,96292.38
2023-03-13T14:17:41.069Z,96304.09
2023-03-13T14:20:16.748Z,96302.88
2023-03-13T14:22:46.484Z,96306.47
2023-03-13T14:25:12.809Z,96313.38
2023-03-13T14:27:45.413Z,96293.66
2023-03-13T14:30:12.027Z,96293.78
2023-03-13T14:32:38.509Z,96302.56
2023-03-13T14:35:05.879Z,96303.03
2023-03-13T14:37:53.188Z,96303.03
2023-03-13T14:40:26.682Z,96305.22
2023-03-13T14:42:53.845Z,96297.88
2023-03-13T14:45:30.061Z,96299.28
2023-03-13T14:48:00.592Z,96296.94
2023-03-13T14:50:26.927Z,96296.44
2023-03-13T14:52:58.687Z,96288.44
2023-03-13T14:55:29.211Z,96290.97
2023-03-13T14:57:56.149Z,96291.28
2023-03-13T15:00:29.335Z,96288.16
2023-03-13T15:03:15.676Z,96277.03
2023-03-13T15:05:42.123Z,96274.22
2023-03-13T15:08:18.409Z,96280.63
2023-03-13T15:10:44.883Z,96269.50
2023-03-13T15:13:15.560Z,96264.50
2023-03-13T15:15:41.931Z,96256.78
2023-03-13T15:18:24.431Z,96244.91
2023-03-13T15:20:51.227Z,96239.91
2023-03-13T15:23:17.617Z,96240.19
2023-03-13T15:25:44.019Z,96234.41
2023-03-13T15:28:14.758Z,96222.19
2023-03-13T15:30:41.137Z,96218.25
2023-03-13T15:33:10.020Z,96224.69
2023-03-13T15:35:36.416Z,96221.53
2023-03-13T15:38:02.828Z,96204.78
2023-03-13T15:40:30.844Z,96197.13
2023-03-13T15:42:57.212Z,96194.78
2023-03-13T15:45:23.528Z,96186.00
2023-03-13T15:47:50.054Z,96182.25
2023-03-13T15:50:17.243Z,96185.19
2023-03-13T15:52:43.582Z,96183.97
2023-03-13T15:55:10.865Z,96183.97
2023-03-13T15:57:37.916Z,96170.16
2023-03-13T16:00:06.865Z,96170.16
2023-03-13T16:02:33.189Z,96170.28
2023-03-13T16:04:59.539Z,96172.38
2023-03-13T16:07:25.860Z,96163.28
2023-03-13T16:09:52.163Z,96156.72
2023-03-13T16:12:18.476Z,96160.50
2023-03-13T16:14:44.801Z,96164.19
2023-03-13T16:17:17.449Z,96153.09
2023-03-13T16:19:44.215Z,96148.22
2023-03-13T16:22:10.571Z,96151.97
2023-03-13T16:24:37.063Z,96152.31
2023-03-13T16:27:05.713Z,96149.94
2023-03-13T16:29:32.030Z,96131.94
2023-03-13T16:31:58.950Z,96144.47
2023-03-13T16:34:25.279Z,96147.91
2023-03-13T16:36:51.611Z,96136.50
2023-03-13T16:39:17.955Z,96143.38
2023-03-13T16:41:44.275Z,96135.06
2023-03-13T16:44:10.719Z,96132.09
2023-03-13T16:46:40.830Z,96127.84
2023-03-13T16:49:07.914Z,96121.31
2023-03-13T16:51:34.267Z,96114.41
2023-03-13T16:54:00.652Z,96113.00
2023-03-13T16:56:33.976Z,96107.66
2023-03-13T16:59:00.877Z,96107.78
2023-03-13T17:01:29.888Z,96100.53
2023-03-13T17:03:56.687Z,96100.19
2023-03-13T17:06:23.948Z,96094.22
2023-03-13T17:08:50.252Z,96096.28
2023-03-13T17:11:17.973Z,96094.22
2023-03-13T17:13:44.958Z,96094.97
2023-03-13T17:16:18.771Z,96104.69
2023-03-13T17:18:45.656Z,96103.41
2023-03-13T17:21:13.177Z,96108.72
2023-03-13T17:23:39.512Z,96114.53
2023-03-13T17:26:10.293Z,96129.13
2023-03-13T17:28:36.840Z,96116.91
2023-03-13T17:31:03.251Z,96120.66
2023-03-13T17:33:29.583Z,96129.06
2023-03-13T17:35:55.917Z,96121.69
2023-03-13T17:38:22.261Z,96117.13
2023-03-13T17:40:48.571Z,96119.03
2023-03-13T17:43:14.968Z,96113.38
2023-03-13T17:45:41.272Z,96115.41
2023-03-13T17:48:10.660Z,96117.75
2023-03-13T17:50:36.987Z,96125.75
2023-03-13T17:53:03.310Z,96125.91
2023-03-13T17:55:29.632Z,96125.47
2023-03-13T17:57:55.994Z,96124.34
2023-03-13T18:00:22.342Z,96123.13
2023-03-13T18:02:48.817Z,96135.31
2023-03-13T18:05:15.130Z,96140.72
2023-03-13T18:07:44.116Z,96143.94
2023-03-13T18:10:27.161Z,96154.06
2023-03-13T18:12:53.592Z,96160.13
2023-03-13T18:15:20.515Z,96165.63
2023-03-13T18:17:46.870Z,96157.59
2023-03-13T18:20:14.348Z,96162.94
2023-03-13T18:22:40.674Z,96158.09
2023-03-13T18:25:07.179Z,96158.88
2023-03-13T18:27:33.483Z,96151.41
2023-03-13T18:29:59.796Z,96146.38
2023-03-13T18:32:26.165Z,96147.16
2023-03-13T18:34:52.524Z,96143.06
2023-03-13T18:37:24.027Z,96137.78
2023-03-13T18:39:50.952Z,96135.69
2023-03-13T18:42:17.277Z,96128.94
2023-03-13T18:44:44.162Z,96124.38
2023-03-13T18:47:14.414Z,96109.25
2023-03-13T18:49:40.729Z,96106.56
2023-03-13T18:52:07.094Z,96119.16
2023-03-13T18:54:33.410Z,96114.81
2023-03-13T18:57:00.429Z,96125.06
2023-03-13T18:59:26.797Z,96122.41
2023-03-13T19:01:54.801Z,96114.63
2023-03-13T19:04:21.263Z,96114.84
2023-03-13T19:06:47.858Z,96129.78
2023-03-13T19:09:41.122Z,96119.44
2023-03-13T19:12:01.700Z,96114.47
2023-03-13T19:14:28.017Z,96090.28
2023-03-13T19:16:56.269Z,96087.38
2023-03-13T19:19:22.996Z,96084.13
2023-03-13T19:21:49.685Z,96095.72
2023-03-13T19:24:16.002Z,96090.78
2023-03-13T19:26:45.822Z,96099.50
2023-03-13T19:29:22.403Z,96095.41
2023-03-13T19:31:48.908Z,96105.66
2023-03-13T19:34:17.090Z,96106.09
2023-03-13T19:36:44.922Z,96128.28
2023-03-13T19:39:12.934Z,96116.81
2023-03-13T19:41:39.345Z,96116.81
2023-03-13T19:44:05.861Z,96112.75
2023-03-13T19:46:34.786Z,96103.63
2023-03-13T19:49:01.526Z,96110.88
2023-03-13T19:51:28.356Z,96120.78
2023-03-13T19:53:55.373Z,96119.91
2023-03-13T19:56:25.570Z,96107.94
2023-03-13T19:58:52.851Z,96098.25
2023-03-13T20:01:19.228Z,96091.81
2023-03-13T20:03:45.857Z,96085.34
2023-03-13T20:06:16.461Z,96081.78
2023-03-13T20:08:42.885Z,96076.53
2023-03-13T20:11:09.248Z,96078.75
2023-03-13T20:13:35.580Z,96082.31
2023-03-13T20:16:02.029Z,96079.22
2023-03-13T20:18:28.359Z,96073.06
2023-03-13T20:20:54.676Z,96059.06
2023-03-13T20:23:21.008Z,96067.97
2023-03-13T20:25:47.322Z,96063.19
2023-03-13T20:28:13.686Z,96065.84
2023-03-13T20:30:41.096Z,96071.53
2023-03-13T20:33:07.495Z,96075.31
2023-03-13T20:35:34.073Z,96068.41
2023-03-13T20:38:01.756Z,96087.91
2023-03-13T20:40:28.157Z,96101.19
2023-03-13T20:42:54.486Z,96102.75
2023-03-13T20:45:20.809Z,96119.13
2023-03-13T20:47:47.178Z,96111.09
2023-03-13T20:50:13.494Z,96106.09
2023-03-13T20:52:39.812Z,96111.22
2023-03-13T20:55:06.187Z,96100.50
2023-03-13T20:57:32.517Z,96093.13
2023-03-13T20:59:58.828Z,96088.56
2023-03-13T21:02:25.157Z,96092.00
2023-03-13T21:04:51.498Z,96086.81
2023-03-13T21:07:17.979Z,96079.88
2023-03-13T21:09:44.594Z,96067.94
2023-03-13T21:12:10.920Z,96076.78
2023-03-13T21:14:37.292Z,96085.00
2023-03-13T21:17:04.125Z,96071.94
2023-03-13T21:19:30.457Z,96066.78
2023-03-13T21:21:56.782Z,96042.56
2023-03-13T21:24:23.095Z,96048.00
2023-03-13T21:26:49.424Z,96030.03
2023-03-13T21:29:15.747Z,96038.53
2023-03-13T21:31:42.078Z,96035.84
2023-03-13T21:34:08.563Z,96038.94
2023-03-13T21:36:34.868Z,96037.50
2023-03-13T21:39:01.171Z,96048.31
2023-03-13T21:41:27.510Z,96045.97
2023-03-13T21:43:55.712Z,96056.66
2023-03-13T21:46:23.535Z,96060.47
2023-03-13T21:48:49.914Z,96062.81
2023-03-13T21:51:16.265Z,96065.94
2023-03-13T21:53:44.377Z,96051.44
2023-03-13T21:56:15.188Z,96045.41
2023-03-13T21:58:41.940Z,96054.22
2023-03-13T22:01:08.298Z,96039.28
2023-03-13T22:03:34.698Z,96026.69
2023-03-13T22:06:01.015Z,96016.28
2023-03-13T22:08:27.380Z,95996.31
2023-03-13T22:10:55.216Z,95967.97
2023-03-13T22:13:21.564Z,95946.88
2023-03-13T22:15:47.892Z,95951.47
2023-03-13T22:18:14.368Z,95958.72
2023-03-13T22:20:40.936Z,95966.31
2023-03-13T22:23:07.310Z,95962.91
2023-03-13T22:25:36.543Z,95964.81
2023-03-13T22:28:03.012Z,95970.06
2023-03-13T22:30:29.324Z,95955.91
2023-03-13T22:32:55.744Z,95953.09
2023-03-13T22:35:22.066Z,95947.59
2023-03-13T22:37:48.401Z,95945.34
2023-03-13T22:40:15.013Z,95945.44
2023-03-13T22:42:41.321Z,95943.13
2023-03-13T22:45:07.975Z,95948.81
2023-03-13T22:47:34.278Z,95969.44
2023-03-13T22:50:00.600Z,95978.59
2023-03-13T22:52:30.645Z,95976.59
2023-03-13T22:54:57.714Z,95975.81
2023-03-13T22:57:24.327Z,95968.44
2023-03-13T22:59:51.677Z,95974.63
2023-03-13T23:02:17.994Z,95968.03
2023-03-13T23:04:44.360Z,95946.97
2023-03-13T23:07:10.934Z,95950.22
2023-03-13T23:09:37.276Z,95954.53
2023-03-13T23:12:03.586Z,95930.81
2023-03-13T23:14:30.259Z,95924.03
2023-03-13T23:16:56.944Z,95932.31
2023-03-13T23:19:23.428Z,95948.13
2023-03-13T23:21:49.740Z,95979.78
2023-03-13T23:24:16.088Z,95985.50
2023-03-13T23:26:42.409Z,95988.84
2023-03-13T23:29:08.766Z,95985.69
2023-03-13T23:31:35.106Z,95981.47
2023-03-13T23:34:01.451Z,95978.38
2023-03-13T23:36:27.751Z,95972.56
2023-03-13T23:38:54.274Z,95951.50
2023-03-13T23:41:20.656Z,95941.47
2023-03-13T23:43:46.979Z,95955.19
2023-03-13T23:46:16.410Z,95954.75
2023-03-13T23:48:42.734Z,95948.97
2023-03-13T23:51:09.231Z,95935.16
2023-03-13T23:53:38.587Z,95919.00
2023-03-13T23:56:04.951Z,95903.31
2023-03-13T23:58:31.319Z,95905.53
